Time;durP1;ratioP1;P1;durP2;ratioP2;P2;SDS_P1;SDS_P2;PMS_P1;PMS_P2;Temp;Humidity;BMP_temperature;BMP_pressure;BME280_temperature;BME280_humidity;BME280_pressure;Samples;Min_cycle;Max_cycle;Signal;HPM_P1;HPM_P2
2024/02/15 00:00:13;;;;;;;49.83;28.10;;;;;;;;;;5072373;28;20078;-84
2024/02/15 00:02:39;;;;;;;48.55;29.75;;;;;;;;;;5071775;28;20082;-83
2024/02/15 00:05:05;;;;;;;40.13;28.35;;;;;;;;;;5071978;28;20066;-83
2024/02/15 00:07:31;;;;;;;43.42;28.95;;;;;;;;;;5071737;28;20023;-86
2024/02/15 00:09:58;;;;;;;45.03;27.58;;;;;;;;;;5073717;28;20488;-82
2024/02/15 00:12:24;;;;;;;43.60;28.85;;;;;;;;;;5072429;28;20391;-84
2024/02/15 00:14:50;;;;;;;54.25;31.92;;;;;;;;;;5072221;28;20074;-84
2024/02/15 00:17:18;;;;;;;38.15;24.60;;;;;;;;;;5072425;28;20377;-83
2024/02/15 00:19:44;;;;;;;44.70;27.85;;;;;;;;;;5072564;28;20496;-82
2024/02/15 00:22:10;;;;;;;39.65;26.15;;;;;;;;;;5073583;28;20071;-81
2024/02/15 00:24:41;;;;;;;44.85;30.23;;;;;;;;;;5075128;28;20051;-79
2024/02/15 00:27:07;;;;;;;45.15;27.20;;;;;;;;;;5073977;28;20100;-81
2024/02/15 00:29:34;;;;;;;42.97;26.48;;;;;;;;;;5074226;28;20029;-79
2024/02/15 00:32:00;;;;;;;51.03;29.92;;;;;;;;;;5071810;28;20042;-81
2024/02/15 00:34:26;;;;;;;53.58;31.65;;;;;;;;;;5071653;28;20044;-79
2024/02/15 00:36:53;;;;;;;46.80;29.73;;;;;;;;;;5071380;28;20025;-80
2024/02/15 00:39:19;;;;;;;36.40;22.42;;;;;;;;;;5072666;28;20016;-81
2024/02/15 00:41:46;;;;;;;41.45;26.85;;;;;;;;;;5071548;28;20021;-81
2024/02/15 00:44:12;;;;;;;46.88;31.95;;;;;;;;;;5071430;28;20047;-80
2024/02/15 00:46:38;;;;;;;43.83;28.10;;;;;;;;;;5071208;28;20081;-80
2024/02/15 00:49:06;;;;;;;43.38;27.67;;;;;;;;;;5071141;28;20504;-82
2024/02/15 00:51:33;;;;;;;47.92;30.58;;;;;;;;;;5070930;28;20360;-83
2024/02/15 00:54:00;;;;;;;47.35;31.40;;;;;;;;;;5071128;28;20020;-80
2024/02/15 00:56:27;;;;;;;54.20;31.92;;;;;;;;;;5072414;28;20214;-80
2024/02/15 00:58:53;;;;;;;44.95;32.08;;;;;;;;;;5071998;28;20095;-81
2024/02/15 01:01:19;;;;;;;49.05;33.58;;;;;;;;;;5070985;28;20029;-80
2024/02/15 01:03:45;;;;;;;52.83;36.13;;;;;;;;;;5072233;28;20025;-79
2024/02/15 01:06:11;;;;;;;52.22;34.25;;;;;;;;;;5072716;28;20024;-79
2024/02/15 01:08:38;;;;;;;41.22;28.40;;;;;;;;;;5072579;28;20460;-81
2024/02/15 01:11:06;;;;;;;46.75;32.17;;;;;;;;;;5073631;28;20025;-80
2024/02/15 01:13:32;;;;;;;39.90;30.20;;;;;;;;;;5073493;28;20488;-81
2024/02/15 01:15:58;;;;;;;56.85;36.20;;;;;;;;;;5076649;28;20045;-83
2024/02/15 01:18:24;;;;;;;45.40;32.40;;;;;;;;;;5078692;28;20023;-85
2024/02/15 01:20:50;;;;;;;40.58;27.02;;;;;;;;;;5071112;28;20031;-84
2024/02/15 01:23:16;;;;;;;45.33;30.38;;;;;;;;;;5070944;28;20048;-85
2024/02/15 01:25:42;;;;;;;27.75;20.77;;;;;;;;;;5070802;28;20063;-85
2024/02/15 01:28:08;;;;;;;41.50;27.10;;;;;;;;;;5071867;28;20430;-84
2024/02/15 01:30:34;;;;;;;41.90;30.58;;;;;;;;;;5070373;28;20529;-85
2024/02/15 01:33:01;;;;;;;50.83;32.72;;;;;;;;;;5070823;28;20032;-86
2024/02/15 01:35:27;;;;;;;43.72;30.77;;;;;;;;;;5070803;28;20029;-87
2024/02/15 01:37:54;;;;;;;38.47;25.50;;;;;;;;;;5071781;28;20445;-84
2024/02/15 01:40:20;;;;;;;44.90;30.25;;;;;;;;;;5070726;28;20158;-85
2024/02/15 01:42:46;;;;;;;37.55;25.25;;;;;;;;;;5070571;28;20031;-83
2024/02/15 01:45:12;;;;;;;32.35;20.95;;;;;;;;;;5074351;28;20032;-83
2024/02/15 01:47:40;;;;;;;42.38;25.90;;;;;;;;;;5075324;28;20021;-84
2024/02/15 01:50:07;;;;;;;32.67;21.27;;;;;;;;;;5074343;28;20029;-84
2024/02/15 01:52:33;;;;;;;36.42;25.50;;;;;;;;;;5075486;28;20036;-83
2024/02/15 01:55:00;;;;;;;31.17;21.88;;;;;;;;;;5074313;28;20043;-83
2024/02/15 01:57:26;;;;;;;28.02;18.38;;;;;;;;;;5074282;28;20048;-83
2024/02/15 01:59:53;;;;;;;28.90;19.23;;;;;;;;;;5073914;28;20051;-84
2024/02/15 02:02:21;;;;;;;37.65;23.90;;;;;;;;;;5074107;28;20020;-84
2024/02/15 02:04:47;;;;;;;33.08;21.70;;;;;;;;;;5073980;28;20032;-84
2024/02/15 02:07:14;;;;;;;38.47;26.13;;;;;;;;;;5074169;28;20025;-84
2024/02/15 02:09:40;;;;;;;44.53;26.60;;;;;;;;;;5073856;28;20021;-84
2024/02/15 02:12:07;;;;;;;34.83;23.30;;;;;;;;;;5074040;28;20051;-84
2024/02/15 02:14:33;;;;;;;30.27;19.95;;;;;;;;;;5075506;28;20028;-85
2024/02/15 02:17:20;;;;;;;36.95;21.42;;;;;;;;;;5075392;28;20052;-84
2024/02/15 02:19:46;;;;;;;36.55;24.38;;;;;;;;;;5073244;28;20077;-84
2024/02/15 02:22:12;;;;;;;33.00;18.45;;;;;;;;;;5073992;28;20024;-84
2024/02/15 02:24:47;;;;;;;33.45;21.30;;;;;;;;;;5075707;28;20027;-84
2024/02/15 02:27:14;;;;;;;31.10;20.65;;;;;;;;;;5084213;28;20029;-82
2024/02/15 02:29:47;;;;;;;29.58;20.15;;;;;;;;;;5078564;28;20111;-82
2024/02/15 02:32:13;;;;;;;27.55;17.05;;;;;;;;;;5084978;28;20021;-82
2024/02/15 02:34:40;;;;;;;29.60;17.77;;;;;;;;;;5074749;28;20111;-85
2024/02/15 02:37:07;;;;;;;29.90;16.63;;;;;;;;;;5073811;28;20070;-86
2024/02/15 02:39:34;;;;;;;38.90;22.30;;;;;;;;;;5073752;28;20487;-86
2024/02/15 02:42:00;;;;;;;28.48;19.17;;;;;;;;;;5073577;28;20032;-85
2024/02/15 02:44:26;;;;;;;30.55;18.90;;;;;;;;;;5074873;28;20017;-85
2024/02/15 02:46:52;;;;;;;25.85;16.35;;;;;;;;;;5073939;28;20021;-85
2024/02/15 02:49:18;;;;;;;35.33;21.92;;;;;;;;;;5073440;28;20020;-83
2024/02/15 02:51:44;;;;;;;25.88;15.02;;;;;;;;;;5074188;28;20435;-85
2024/02/15 02:54:11;;;;;;;27.10;16.38;;;;;;;;;;5074867;28;20449;-87
2024/02/15 02:56:37;;;;;;;37.78;21.27;;;;;;;;;;5074544;28;20021;-85
2024/02/15 02:59:03;;;;;;;32.10;18.15;;;;;;;;;;5073271;28;20125;-83
2024/02/15 03:01:29;;;;;;;25.50;15.88;;;;;;;;;;5073034;28;20037;-82
2024/02/15 03:03:57;;;;;;;26.83;16.17;;;;;;;;;;5072756;28;20033;-82
2024/02/15 03:06:24;;;;;;;28.83;18.00;;;;;;;;;;5074392;28;20052;-84
2024/02/15 03:08:54;;;;;;;31.05;19.23;;;;;;;;;;5072870;28;20029;-84
2024/02/15 03:11:20;;;;;;;24.92;16.63;;;;;;;;;;5073020;28;20024;-84
2024/02/15 03:13:46;;;;;;;33.80;17.77;;;;;;;;;;5072928;28;20025;-84
2024/02/15 03:16:12;;;;;;;26.77;17.02;;;;;;;;;;5072496;28;20445;-84
2024/02/15 03:18:38;;;;;;;22.17;12.23;;;;;;;;;;5073025;28;20391;-84
2024/02/15 03:21:04;;;;;;;29.20;15.43;;;;;;;;;;5073919;28;20392;-82
2024/02/15 03:23:33;;;;;;;30.33;17.73;;;;;;;;;;5081515;28;20031;-82
2024/02/15 03:25:59;;;;;;;27.58;14.68;;;;;;;;;;5088344;28;20047;-82
2024/02/15 03:28:28;;;;;;;30.98;16.23;;;;;;;;;;5088917;28;20082;-81
2024/02/15 03:30:55;;;;;;;28.00;14.48;;;;;;;;;;5075788;28;20182;-86
2024/02/15 03:33:26;;;;;;;23.33;13.65;;;;;;;;;;5074403;28;20089;-84
2024/02/15 03:35:52;;;;;;;27.20;14.63;;;;;;;;;;5072211;28;20052;-84
2024/02/15 03:38:18;;;;;;;29.83;15.73;;;;;;;;;;5072414;28;20060;-84
2024/02/15 03:40:44;;;;;;;26.80;12.60;;;;;;;;;;5072164;28;20278;-83
2024/02/15 03:43:10;;;;;;;20.73;12.35;;;;;;;;;;5072268;28;20056;-85
2024/02/15 03:45:36;;;;;;;14.82;9.45;;;;;;;;;;5072484;28;20028;-85
2024/02/15 03:48:05;;;;;;;28.38;15.63;;;;;;;;;;5071945;28;20031;-86
2024/02/15 03:50:32;;;;;;;18.77;9.77;;;;;;;;;;5072327;28;20039;-82
2024/02/15 03:53:00;;;;;;;21.73;11.27;;;;;;;;;;5073154;28;20079;-81
2024/02/15 03:55:26;;;;;;;25.13;13.35;;;;;;;;;;5071940;28;20464;-82
2024/02/15 03:57:55;;;;;;;21.88;12.15;;;;;;;;;;5071700;28;20024;-82
2024/02/15 04:00:21;;;;;;;27.33;13.23;;;;;;;;;;5073018;28;20040;-81
2024/02/15 04:02:48;;;;;;;26.20;12.48;;;;;;;;;;5073069;28;20024;-81
2024/02/15 04:05:15;;;;;;;25.55;13.02;;;;;;;;;;5071501;28;20041;-82
2024/02/15 04:07:41;;;;;;;25.15;11.88;;;;;;;;;;5072437;28;20482;-83
2024/02/15 04:10:08;;;;;;;18.25;9.75;;;;;;;;;;5071710;28;20380;-83
2024/02/15 04:12:34;;;;;;;27.73;13.43;;;;;;;;;;5071384;28;20017;-83
2024/02/15 04:15:05;;;;;;;21.13;10.90;;;;;;;;;;5071424;28;20472;-82
2024/02/15 04:17:32;;;;;;;15.52;9.10;;;;;;;;;;5071042;28;20057;-82
2024/02/15 04:19:59;;;;;;;23.20;12.57;;;;;;;;;;5072626;28;20025;-82
2024/02/15 04:22:25;;;;;;;14.00;7.72;;;;;;;;;;5072890;28;20342;-82
2024/02/15 04:24:51;;;;;;;26.20;13.18;;;;;;;;;;5071313;28;20460;-82
2024/02/15 04:27:20;;;;;;;17.17;9.27;;;;;;;;;;5074254;28;20024;-80
2024/02/15 04:29:46;;;;;;;16.05;8.75;;;;;;;;;;5077102;28;20358;-83
2024/02/15 04:32:13;;;;;;;19.75;8.48;;;;;;;;;;5074363;28;20028;-81
2024/02/15 04:34:39;;;;;;;16.98;9.90;;;;;;;;;;5075914;28;20369;-82
2024/02/15 04:37:09;;;;;;;15.23;8.35;;;;;;;;;;5070719;28;20025;-83
2024/02/15 04:39:35;;;;;;;24.60;11.32;;;;;;;;;;5070987;28;20112;-86
2024/02/15 04:42:02;;;;;;;18.95;8.23;;;;;;;;;;5070933;28;20029;-86
2024/02/15 04:44:28;;;;;;;20.00;8.48;;;;;;;;;;5071263;28;20029;-86
2024/02/15 04:46:54;;;;;;;21.73;10.50;;;;;;;;;;5070896;28;20095;-83
2024/02/15 04:49:20;;;;;;;23.45;8.57;;;;;;;;;;5071037;28;20082;-83
2024/02/15 04:51:47;;;;;;;19.48;7.72;;;;;;;;;;5070835;28;20032;-87
2024/02/15 04:54:13;;;;;;;19.70;9.27;;;;;;;;;;5071291;28;20090;-84
2024/02/15 04:56:43;;;;;;;21.58;9.65;;;;;;;;;;5071197;28;20016;-85
2024/02/15 04:59:15;;;;;;;19.73;7.53;;;;;;;;;;5070980;28;20021;-84
2024/02/15 05:01:45;;;;;;;16.48;6.93;;;;;;;;;;5071411;28;20476;-84
2024/02/15 05:04:11;;;;;;;21.45;8.65;;;;;;;;;;5071096;28;20186;-83
2024/02/15 05:06:37;;;;;;;23.70;9.90;;;;;;;;;;5072359;28;20028;-83
2024/02/15 05:09:09;;;;;;;22.63;9.02;;;;;;;;;;5070873;28;20035;-83
2024/02/15 05:11:36;;;;;;;23.92;9.00;;;;;;;;;;5071045;28;20024;-83
2024/02/15 05:14:06;;;;;;;22.88;9.40;;;;;;;;;;5070724;28;20033;-83
2024/02/15 05:16:32;;;;;;;16.05;7.18;;;;;;;;;;5072028;28;20044;-83
2024/02/15 05:18:58;;;;;;;16.02;8.63;;;;;;;;;;5072938;28;20029;-82
2024/02/15 05:21:24;;;;;;;23.42;7.75;;;;;;;;;;5074762;28;20099;-82
2024/02/15 05:23:52;;;;;;;18.50;6.15;;;;;;;;;;5074716;28;20037;-82
2024/02/15 05:26:23;;;;;;;16.15;6.75;;;;;;;;;;5074676;28;20116;-82
2024/02/15 05:28:49;;;;;;;22.20;8.70;;;;;;;;;;5074345;28;20024;-82
2024/02/15 05:31:16;;;;;;;19.17;7.88;;;;;;;;;;5074700;28;20086;-82
2024/02/15 05:33:43;;;;;;;24.23;8.70;;;;;;;;;;5076755;28;20047;-82
2024/02/15 05:36:13;;;;;;;18.60;7.38;;;;;;;;;;5084489;28;20024;-81
2024/02/15 05:38:40;;;;;;;22.60;9.53;;;;;;;;;;5085109;28;20028;-81
2024/02/15 05:41:07;;;;;;;16.08;8.23;;;;;;;;;;5086777;28;20262;-84
2024/02/15 05:43:33;;;;;;;17.48;8.90;;;;;;;;;;5074655;28;20438;-85
2024/02/15 05:46:01;;;;;;;23.25;10.32;;;;;;;;;;5074314;28;20786;-84
2024/02/15 05:48:27;;;;;;;18.23;8.00;;;;;;;;;;5074510;28;20056;-84
2024/02/15 05:50:54;;;;;;;13.52;6.95;;;;;;;;;;5073864;28;20052;-84
2024/02/15 05:53:20;;;;;;;16.70;7.82;;;;;;;;;;5074145;28;20430;-84
2024/02/15 05:55:49;;;;;;;15.90;5.70;;;;;;;;;;5073979;28;20023;-84
2024/02/15 05:58:15;;;;;;;22.58;9.05;;;;;;;;;;5074376;28;20017;-84
2024/02/15 06:00:41;;;;;;;15.55;7.95;;;;;;;;;;5075353;28;20039;-84
2024/02/15 06:03:09;;;;;;;25.40;9.35;;;;;;;;;;5075893;28;20453;-85
2024/02/15 06:05:35;;;;;;;17.13;7.82;;;;;;;;;;5075974;28;20027;-86
2024/02/15 06:08:01;;;;;;;15.50;7.53;;;;;;;;;;5074687;28;20059;-86
2024/02/15 06:10:29;;;;;;;20.30;6.88;;;;;;;;;;5073951;28;20119;-83
2024/02/15 06:12:55;;;;;;;10.90;4.70;;;;;;;;;;5074038;28;20063;-84
2024/02/15 06:15:21;;;;;;;11.60;6.20;;;;;;;;;;5073852;28;20132;-81
2024/02/15 06:17:47;;;;;;;10.80;5.13;;;;;;;;;;5073414;28;20048;-83
2024/02/15 06:20:14;;;;;;;20.17;8.27;;;;;;;;;;5073799;28;20405;-82
2024/02/15 06:22:40;;;;;;;13.80;5.40;;;;;;;;;;5073863;28;20021;-82
2024/02/15 06:25:06;;;;;;;15.93;6.30;;;;;;;;;;5073583;28;20048;-86
2024/02/15 06:27:32;;;;;;;17.60;6.60;;;;;;;;;;5074564;28;20070;-86
2024/02/15 06:40:58;;;;;;;20.27;7.63;;;;;;;;;;5074666;28;20043;-83
2024/02/15 06:43:24;;;;;;;16.77;9.23;;;;;;;;;;5074704;28;20067;-84
2024/02/15 06:45:51;;;;;;;13.27;6.57;;;;;;;;;;5073411;28;20024;-82
2024/02/15 06:48:17;;;;;;;24.33;9.07;;;;;;;;;;5073149;28;20028;-85
2024/02/15 06:50:43;;;;;;;18.83;9.57;;;;;;;;;;5073125;28;20035;-82
2024/02/15 06:53:09;;;;;;;18.02;7.95;;;;;;;;;;5074080;28;20028;-82
2024/02/15 06:55:37;;;;;;;13.48;6.43;;;;;;;;;;5072956;28;20021;-81
2024/02/15 06:58:03;;;;;;;17.98;9.02;;;;;;;;;;5072553;28;20111;-84
2024/02/15 07:00:30;;;;;;;13.45;6.40;;;;;;;;;;5073115;28;20078;-84
2024/02/15 07:02:56;;;;;;;13.35;7.55;;;;;;;;;;5072677;28;20369;-83
2024/02/15 07:05:23;;;;;;;18.42;8.48;;;;;;;;;;5072736;28;20027;-84
2024/02/15 07:07:49;;;;;;;23.52;9.50;;;;;;;;;;5072668;28;20031;-84
2024/02/15 07:10:18;;;;;;;16.88;7.38;;;;;;;;;;5072597;28;20086;-83
2024/02/15 07:12:44;;;;;;;9.98;5.53;;;;;;;;;;5074093;28;20031;-84
2024/02/15 07:15:11;;;;;;;13.20;7.95;;;;;;;;;;5073562;28;20032;-84
2024/02/15 07:17:38;;;;;;;17.77;7.82;;;;;;;;;;5072535;28;20056;-84
2024/02/15 07:20:04;;;;;;;15.40;8.32;;;;;;;;;;5072472;28;20024;-83
2024/02/15 07:22:31;;;;;;;17.23;6.43;;;;;;;;;;5072795;28;20047;-83
2024/02/15 07:24:57;;;;;;;20.15;7.65;;;;;;;;;;5072518;28;20445;-84
2024/02/15 07:27:25;;;;;;;11.07;5.20;;;;;;;;;;5073008;28;20111;-84
2024/02/15 07:29:52;;;;;;;9.15;4.80;;;;;;;;;;5072716;28;20070;-83
2024/02/15 07:32:19;;;;;;;9.55;3.50;;;;;;;;;;5073309;28;20025;-89
2024/02/15 07:34:47;;;;;;;7.10;3.20;;;;;;;;;;5075084;28;20073;-87
2024/02/15 07:37:15;;;;;;;6.22;3.70;;;;;;;;;;5073630;28;20463;-87
2024/02/15 07:39:41;;;;;;;6.95;2.78;;;;;;;;;;5073496;28;20392;-88
2024/02/15 07:42:08;;;;;;;10.45;3.30;;;;;;;;;;5071427;28;20041;-85
2024/02/15 07:44:36;;;;;;;8.48;3.05;;;;;;;;;;5072682;28;20380;-88
2024/02/15 07:47:02;;;;;;;8.25;2.60;;;;;;;;;;5075133;28;20029;-86
2024/02/15 07:49:29;;;;;;;7.68;3.70;;;;;;;;;;5092508;28;20122;-84
2024/02/15 07:51:55;;;;;;;12.10;6.40;;;;;;;;;;5094726;28;20028;-86
2024/02/15 07:54:21;;;;;;;7.70;4.53;;;;;;;;;;5093359;28;20039;-81
2024/02/15 07:56:51;;;;;;;14.98;6.22;;;;;;;;;;5076528;28;20043;-83
2024/02/15 07:59:17;;;;;;;;;;;;;;;;;;5073671;28;20484;-84
2024/02/15 08:01:45;;;;;;;13.27;6.68;;;;;;;;;;5071932;28;19912;-84
2024/02/15 08:04:23;;;;;;;13.60;7.05;;;;;;;;;;5090056;28;20859;-85
2024/02/15 08:06:50;;;;;;;11.32;5.13;;;;;;;;;;5088577;28;20059;-84
2024/02/15 08:09:17;;;;;;;12.95;7.15;;;;;;;;;;5088516;28;20119;-84
2024/02/15 08:11:44;;;;;;;13.60;7.68;;;;;;;;;;5088505;28;20033;-85
2024/02/15 08:14:10;;;;;;;14.55;8.20;;;;;;;;;;5088471;28;20024;-85
2024/02/15 08:16:38;;;;;;;11.07;5.55;;;;;;;;;;5088654;28;20024;-85
2024/02/15 08:19:05;;;;;;;15.07;8.60;;;;;;;;;;5088552;28;20419;-85
2024/02/15 08:21:36;;;;;;;13.15;8.60;;;;;;;;;;5088756;28;20411;-86
2024/02/15 08:24:05;;;;;;;15.98;9.20;;;;;;;;;;5088777;28;20082;-85
2024/02/15 08:26:41;;;;;;;16.20;9.77;;;;;;;;;;5089491;28;20024;-84
2024/02/15 08:29:07;;;;;;;16.48;9.05;;;;;;;;;;5088144;28;20025;-84
2024/02/15 08:31:33;;;;;;;17.50;10.05;;;;;;;;;;5088734;28;20031;-83
2024/02/15 08:34:00;;;;;;;16.30;9.52;;;;;;;;;;5092224;28;20062;-83
2024/02/15 08:36:26;;;;;;;9.98;6.95;;;;;;;;;;5089197;28;20103;-83
2024/02/15 08:38:53;;;;;;;12.63;7.38;;;;;;;;;;5093227;28;20646;-82
2024/02/15 08:41:20;;;;;;;14.73;9.55;;;;;;;;;;5088673;28;20066;-84
2024/02/15 08:43:48;;;;;;;15.65;10.13;;;;;;;;;;5088116;28;20039;-85
2024/02/15 08:46:14;;;;;;;10.05;7.82;;;;;;;;;;5087843;28;20450;-84
2024/02/15 08:48:40;;;;;;;11.73;8.82;;;;;;;;;;5088236;28;20024;-86
2024/02/15 08:51:08;;;;;;;11.95;9.02;;;;;;;;;;5087746;28;20027;-83
2024/02/15 08:53:37;;;;;;;13.25;8.68;;;;;;;;;;5087887;28;20025;-84
2024/02/15 08:56:04;;;;;;;8.73;5.38;;;;;;;;;;5087687;28;20464;-84
2024/02/15 08:58:30;;;;;;;13.15;8.30;;;;;;;;;;5087853;28;20035;-83
2024/02/15 09:00:57;;;;;;;11.45;7.78;;;;;;;;;;5087886;28;20069;-83
2024/02/15 09:03:23;;;;;;;14.98;9.07;;;;;;;;;;5087303;28;20392;-84
2024/02/15 09:05:49;;;;;;;14.15;8.23;;;;;;;;;;5087629;28;20056;-84
2024/02/15 09:08:19;;;;;;;13.55;8.38;;;;;;;;;;5087648;28;20024;-83
2024/02/15 09:10:45;;;;;;;8.63;5.07;;;;;;;;;;5087333;28;20073;-84
2024/02/15 09:13:12;;;;;;;10.27;6.20;;;;;;;;;;5087051;28;20032;-85
2024/02/15 09:15:38;;;;;;;12.18;8.50;;;;;;;;;;5073962;28;20028;-84
2024/02/15 09:18:05;;;;;;;11.85;6.40;;;;;;;;;;5073957;28;20354;-84
2024/02/15 09:20:31;;;;;;;10.15;6.45;;;;;;;;;;5074168;28;20033;-83
2024/02/15 09:23:06;;;;;;;8.77;5.57;;;;;;;;;;5073741;28;20032;-84
2024/02/15 09:25:32;;;;;;;13.95;7.50;;;;;;;;;;5073698;28;20601;-83
2024/02/15 09:27:58;;;;;;;8.20;5.53;;;;;;;;;;5073338;28;20024;-84
2024/02/15 09:30:27;;;;;;;9.32;6.25;;;;;;;;;;5073557;28;20027;-83
2024/02/15 09:32:53;;;;;;;14.30;7.95;;;;;;;;;;5073703;28;20021;-85
2024/02/15 09:35:20;;;;;;;11.43;7.50;;;;;;;;;;5073534;28;20487;-85
2024/02/15 09:37:52;;;;;;;7.85;4.15;;;;;;;;;;5073572;28;20028;-84
2024/02/15 09:40:18;;;;;;;10.80;6.78;;;;;;;;;;5073449;28;20025;-84
2024/02/15 09:42:45;;;;;;;15.55;7.30;;;;;;;;;;5073435;28;20073;-84
2024/02/15 09:45:16;;;;;;;9.75;4.85;;;;;;;;;;5073337;28;20146;-85
2024/02/15 09:47:42;;;;;;;9.90;6.82;;;;;;;;;;5073581;28;20024;-85
2024/02/15 09:50:15;;;;;;;17.00;7.97;;;;;;;;;;5074810;28;20021;-85
2024/02/15 09:52:51;;;;;;;14.98;5.90;;;;;;;;;;5073331;28;20477;-85
2024/02/15 09:55:18;;;;;;;10.70;5.55;;;;;;;;;;5073300;28;20070;-84
2024/02/15 09:57:48;;;;;;;15.13;5.70;;;;;;;;;;5073058;28;20024;-85
2024/02/15 10:00:16;;;;;;;11.20;6.47;;;;;;;;;;5073836;28;20438;-84
2024/02/15 10:02:46;;;;;;;8.25;4.63;;;;;;;;;;5082654;28;20048;-82
2024/02/15 10:05:12;;;;;;;12.38;5.82;;;;;;;;;;5091907;28;20020;-81
2024/02/15 10:07:45;;;;;;;11.52;5.25;;;;;;;;;;5093441;28;20024;-83
2024/02/15 10:10:21;;;;;;;11.82;4.47;;;;;;;;;;5078286;28;20464;-84
2024/02/15 10:12:51;;;;;;;15.05;5.70;;;;;;;;;;5073468;28;20035;-85
2024/02/15 10:15:30;;;;;;;16.25;5.43;;;;;;;;;;5072621;28;20028;-85
2024/02/15 10:17:56;;;;;;;9.80;4.97;;;;;;;;;;5072672;28;20029;-85
2024/02/15 10:20:25;;;;;;;11.38;5.22;;;;;;;;;;5072661;28;20031;-84
2024/02/15 10:22:52;;;;;;;13.65;4.32;;;;;;;;;;5072600;28;20123;-84
2024/02/15 10:25:18;;;;;;;10.55;4.47;;;;;;;;;;5072410;28;20024;-83
2024/02/15 10:27:45;;;;;;;10.38;4.25;;;;;;;;;;5072248;28;20055;-84
2024/02/15 10:30:17;;;;;;;15.20;6.18;;;;;;;;;;5072508;28;20024;-84
2024/02/15 10:32:44;;;;;;;10.38;5.15;;;;;;;;;;5072997;28;20024;-90
2024/02/15 10:35:23;;;;;;;12.88;5.20;;;;;;;;;;5074080;28;20132;-89
2024/02/15 10:37:55;;;;;;;11.27;4.35;;;;;;;;;;5090908;28;20034;-90
2024/02/15 10:40:22;;;;;;;13.05;5.10;;;;;;;;;;5088671;28;20045;-91
2024/02/15 10:42:51;;;;;;;6.75;2.88;;;;;;;;;;5094655;28;20048;-90
2024/02/15 10:45:17;;;;;;;14.50;4.28;;;;;;;;;;5088866;28;20043;-91
2024/02/15 10:47:47;;;;;;;13.18;5.22;;;;;;;;;;5076283;28;20082;-91
2024/02/15 10:50:14;;;;;;;11.00;4.93;;;;;;;;;;5075181;28;20464;-90
2024/02/15 10:52:45;;;;;;;12.30;5.25;;;;;;;;;;5073555;28;20033;-90
2024/02/15 10:55:13;;;;;;;12.73;4.72;;;;;;;;;;5073150;28;20111;-90
2024/02/15 10:57:40;;;;;;;13.90;6.90;;;;;;;;;;5072712;28;20031;-88
2024/02/15 11:00:10;;;;;;;13.90;5.72;;;;;;;;;;5072696;28;20032;-91
2024/02/15 11:02:47;;;;;;;7.10;3.42;;;;;;;;;;5056366;28;20064;-91
2024/02/15 11:05:20;;;;;;;13.90;5.68;;;;;;;;;;5074129;28;20111;-89
2024/02/15 11:07:46;;;;;;;9.57;4.68;;;;;;;;;;5073049;28;20013;-89
2024/02/15 11:10:16;;;;;;;13.57;5.22;;;;;;;;;;5072590;28;20032;-89
2024/02/15 11:12:43;;;;;;;14.55;5.57;;;;;;;;;;5072448;28;20028;-89
2024/02/15 11:15:13;;;;;;;18.25;6.38;;;;;;;;;;5072072;28;20025;-89
2024/02/15 11:17:48;;;;;;;8.10;4.97;;;;;;;;;;5072218;28;20031;-89
2024/02/15 11:20:30;;;;;;;12.23;3.80;;;;;;;;;;5072020;28;20091;-87
2024/02/15 11:22:57;;;;;;;13.52;5.25;;;;;;;;;;5073037;28;20499;-90
2024/02/15 11:25:34;;;;;;;8.48;3.88;;;;;;;;;;5072818;28;20048;-85
2024/02/15 11:28:20;;;;;;;11.27;4.82;;;;;;;;;;5073254;28;20044;-89
2024/02/15 11:30:46;;;;;;;11.40;4.60;;;;;;;;;;5071564;28;20499;-87
2024/02/15 11:33:27;;;;;;;8.13;2.92;;;;;;;;;;5071237;28;20168;-82
2024/02/15 11:36:09;;;;;;;8.32;4.63;;;;;;;;;;5071280;28;20035;-82
2024/02/15 11:38:36;;;;;;;10.93;4.40;;;;;;;;;;5070751;28;20021;-83
2024/02/15 11:41:02;;;;;;;13.75;4.88;;;;;;;;;;5071456;28;20349;-83
2024/02/15 11:43:45;;;;;;;9.27;3.92;;;;;;;;;;5070590;28;20492;-82
2024/02/15 11:46:18;;;;;;;13.77;5.18;;;;;;;;;;5070867;28;20040;-83
2024/02/15 11:48:46;;;;;;;12.10;4.65;;;;;;;;;;5071020;28;20468;-84
2024/02/15 11:51:25;;;;;;;9.60;3.08;;;;;;;;;;5070916;28;20388;-82
2024/02/15 11:54:00;;;;;;;6.77;2.23;;;;;;;;;;5071284;28;20590;-83
2024/02/15 11:56:26;;;;;;;9.38;3.47;;;;;;;;;;5071163;28;20119;-85
2024/02/15 11:59:04;;;;;;;10.40;4.28;;;;;;;;;;5071215;28;20051;-84
2024/02/15 12:21:02;;;;;;;5.93;2.65;;;;;;;;;;5077675;28;20035;-80
2024/02/15 12:23:33;;;;;;;9.73;3.55;;;;;;;;;;5072454;28;20131;-84
2024/02/15 12:26:00;;;;;;;6.47;1.88;;;;;;;;;;5071417;28;20061;-84
2024/02/15 12:28:26;;;;;;;6.70;2.63;;;;;;;;;;5070339;28;20020;-82
2024/02/15 12:30:57;;;;;;;9.88;4.50;;;;;;;;;;5071289;28;20078;-83
2024/02/15 12:33:23;;;;;;;9.57;3.75;;;;;;;;;;5070762;28;20464;-84
2024/02/15 12:35:51;;;;;;;10.20;3.53;;;;;;;;;;5074132;28;20025;-84
2024/02/15 12:38:17;;;;;;;7.55;3.40;;;;;;;;;;5071734;28;20031;-84
2024/02/15 12:40:46;;;;;;;8.40;4.05;;;;;;;;;;5071398;28;20464;-82
2024/02/15 12:43:12;;;;;;;13.90;4.27;;;;;;;;;;5071065;28;20117;-83
2024/02/15 12:45:39;;;;;;;8.48;4.40;;;;;;;;;;5071138;28;20416;-83
2024/02/15 12:48:06;;;;;;;7.55;3.10;;;;;;;;;;5070721;28;20029;-83
2024/02/15 12:50:32;;;;;;;7.50;3.35;;;;;;;;;;5073200;28;20036;-82
2024/02/15 12:53:05;;;;;;;4.40;2.05;;;;;;;;;;5074862;28;20024;-84
2024/02/15 12:55:39;;;;;;;8.50;3.00;;;;;;;;;;5074029;28;20021;-84
2024/02/15 12:58:08;;;;;;;5.10;2.10;;;;;;;;;;5074531;28;20040;-82
2024/02/15 13:00:36;;;;;;;7.22;2.58;;;;;;;;;;5074475;28;20085;-83
2024/02/15 13:03:03;;;;;;;8.27;3.20;;;;;;;;;;5074578;28;20036;-85
2024/02/15 13:05:30;;;;;;;6.88;2.65;;;;;;;;;;5073764;28;20067;-84
2024/02/15 13:08:02;;;;;;;6.07;2.35;;;;;;;;;;5076400;28;20177;-84
2024/02/15 13:10:29;;;;;;;6.53;3.10;;;;;;;;;;5075823;28;20028;-83
2024/02/15 13:12:55;;;;;;;6.75;2.38;;;;;;;;;;5076316;28;20054;-84
2024/02/15 13:15:26;;;;;;;9.43;3.13;;;;;;;;;;5076295;28;20094;-83
2024/02/15 13:17:53;;;;;;;7.53;2.72;;;;;;;;;;5076903;28;20031;-85
2024/02/15 13:20:32;;;;;;;7.28;2.58;;;;;;;;;;5077079;28;20112;-83
2024/02/15 13:23:02;;;;;;;8.68;3.40;;;;;;;;;;5077920;28;20028;-83
2024/02/15 13:25:28;;;;;;;8.73;2.65;;;;;;;;;;5077614;28;20017;-84
2024/02/15 13:27:54;;;;;;;9.82;2.88;;;;;;;;;;5077719;28;20172;-85
2024/02/15 13:30:23;;;;;;;8.10;2.13;;;;;;;;;;5076833;28;20021;-83
2024/02/15 13:32:54;;;;;;;6.47;2.58;;;;;;;;;;5073685;28;20040;-84
2024/02/15 13:35:23;;;;;;;7.00;3.15;;;;;;;;;;5073308;28;20025;-84
2024/02/15 13:37:52;;;;;;;7.32;3.20;;;;;;;;;;5073518;28;20503;-84
2024/02/15 13:40:22;;;;;;;6.22;2.20;;;;;;;;;;5073182;28;20025;-85
2024/02/15 13:42:55;;;;;;;14.05;3.00;;;;;;;;;;5074528;28;20123;-83
2024/02/15 13:45:29;;;;;;;6.63;2.15;;;;;;;;;;5073368;28;20357;-83
2024/02/15 13:47:57;;;;;;;5.72;2.03;;;;;;;;;;5073401;28;20021;-83
2024/02/15 13:50:23;;;;;;;8.73;2.35;;;;;;;;;;5072970;28;20104;-84
2024/02/15 13:52:50;;;;;;;6.47;2.28;;;;;;;;;;5073028;28;20044;-83
2024/02/15 13:55:22;;;;;;;7.57;2.40;;;;;;;;;;5072987;28;20024;-84
2024/02/15 13:57:48;;;;;;;7.65;2.53;;;;;;;;;;5074283;28;20275;-83
2024/02/15 14:00:29;;;;;;;5.13;2.33;;;;;;;;;;5074052;28;20021;-84
2024/02/15 14:02:59;;;;;;;10.60;2.83;;;;;;;;;;5074240;28;20052;-83
2024/02/15 14:05:28;;;;;;;5.63;1.88;;;;;;;;;;5072705;28;20373;-84
2024/02/15 14:07:55;;;;;;;7.38;2.10;;;;;;;;;;5072976;28;20059;-83
2024/02/15 14:10:22;;;;;;;6.28;2.85;;;;;;;;;;5072692;28;20024;-84
2024/02/15 14:12:48;;;;;;;9.45;2.92;;;;;;;;;;5072840;28;20497;-84
2024/02/15 14:15:15;;;;;;;5.32;2.55;;;;;;;;;;5072548;28;20388;-85
2024/02/15 14:17:41;;;;;;;8.63;2.65;;;;;;;;;;5072216;28;20083;-84
2024/02/15 14:20:13;;;;;;;5.22;2.70;;;;;;;;;;5072444;28;20052;-85
2024/02/15 14:22:44;;;;;;;8.18;3.67;;;;;;;;;;5072534;28;20032;-82
2024/02/15 14:25:11;;;;;;;6.68;2.95;;;;;;;;;;5072411;28;20134;-85
2024/02/15 14:27:38;;;;;;;4.78;2.38;;;;;;;;;;5073454;28;20387;-83
2024/02/15 14:33:00;;;;;;;10.90;4.55;;;;;;;;;;5074323;28;20059;-83
2024/02/15 14:35:26;;;;;;;8.18;2.70;;;;;;;;;;5073253;28;20020;-85
2024/02/15 14:37:52;;;;;;;9.13;3.55;;;;;;;;;;5072314;28;20286;-84
2024/02/15 14:40:18;;;;;;;11.18;3.30;;;;;;;;;;5072228;28;20204;-84
2024/02/15 14:42:44;;;;;;;8.65;3.40;;;;;;;;;;5071984;28;20036;-85
2024/02/15 14:45:12;;;;;;;9.02;2.90;;;;;;;;;;5072120;28;20031;-83
2024/02/15 14:47:38;;;;;;;7.07;2.50;;;;;;;;;;5071642;28;20021;-82
2024/02/15 14:50:12;;;;;;;5.47;2.28;;;;;;;;;;5072143;28;20024;-82
2024/02/15 14:52:38;;;;;;;6.60;2.00;;;;;;;;;;5071524;28;20024;-84
2024/02/15 14:55:07;;;;;;;5.72;2.30;;;;;;;;;;5072881;28;20048;-84
2024/02/15 14:57:33;;;;;;;7.95;3.55;;;;;;;;;;5071286;28;20115;-84
2024/02/15 15:00:00;;;;;;;9.27;3.35;;;;;;;;;;5071446;28;20474;-83
2024/02/15 15:02:26;;;;;;;7.22;2.80;;;;;;;;;;5070939;28;20468;-85
2024/02/15 15:13:06;;;;;;;7.72;3.20;;;;;;;;;;5072729;28;20131;-84